Time;durP1;ratioP1;P1;durP2;ratioP2;P2;SDS_P1;SDS_P2;PMS_P1;PMS_P2;Temp;Humidity;BMP_temperature;BMP_pressure;BME280_temperature;BME280_humidity;BME280_pressure;Samples;Min_cycle;Max_cycle;Signal;HPM_P1;HPM_P2
2022/02/22 00:00:32;;;;;;;17.08;4.15;;;8.80;99.90;;;;;;4989837;28;20171;-78
2022/02/22 00:02:58;;;;;;;14.90;2.77;;;8.80;99.90;;;;;;4981766;28;20274;-79
2022/02/22 00:05:24;;;;;;;14.37;3.70;;;8.80;99.90;;;;;;4982720;28;20578;-78
2022/02/22 00:07:50;;;;;;;17.58;3.45;;;8.80;99.90;;;;;;4982839;28;20203;-78
2022/02/22 00:10:15;;;;;;;14.10;3.23;;;8.80;99.90;;;;;;4972249;28;20211;-78
2022/02/22 00:12:43;;;;;;;16.07;3.37;;;8.80;99.90;;;;;;4987658;28;20183;-78
2022/02/22 00:15:09;;;;;;;15.18;3.40;;;8.80;99.90;;;;;;4981865;28;20271;-78
2022/02/22 00:17:38;;;;;;;11.57;3.30;;;8.80;99.90;;;;;;4967514;28;20645;-78
2022/02/22 00:20:06;;;;;;;15.82;3.28;;;8.80;99.90;;;;;;4980800;28;20273;-77
2022/02/22 00:22:33;;;;;;;21.23;3.63;;;8.80;99.90;;;;;;4983021;28;20676;-77
2022/02/22 00:24:59;;;;;;;13.80;3.67;;;8.80;99.90;;;;;;4986897;28;20246;-77
2022/02/22 00:27:25;;;;;;;13.33;2.97;;;8.80;99.90;;;;;;4981648;28;20211;-79
2022/02/22 00:29:51;;;;;;;17.63;3.03;;;8.70;99.90;;;;;;4981355;28;20195;-79
2022/02/22 00:32:17;;;;;;;16.23;4.23;;;8.70;99.90;;;;;;4981502;28;20594;-79
2022/02/22 00:34:42;;;;;;;13.83;3.50;;;8.70;99.90;;;;;;4983421;28;20183;-79
2022/02/22 00:37:08;;;;;;;17.73;3.60;;;8.70;99.90;;;;;;4981382;28;20175;-79
2022/02/22 00:39:34;;;;;;;13.37;3.50;;;8.70;99.90;;;;;;4983956;28;20675;-79
2022/02/22 00:41:59;;;;;;;17.20;3.40;;;8.70;99.90;;;;;;4986787;28;20635;-79
2022/02/22 00:44:27;;;;;;;17.37;3.50;;;8.60;99.90;;;;;;4990570;28;20187;-79
2022/02/22 00:46:52;;;;;;;13.15;2.60;;;8.60;99.90;;;;;;4984701;28;20245;-79
2022/02/22 00:49:18;;;;;;;18.07;4.50;;;8.60;99.90;;;;;;4968519;28;20216;-79
2022/02/22 00:51:44;;;;;;;14.50;3.50;;;8.60;99.90;;;;;;4979968;28;20183;-79
2022/02/22 00:54:09;;;;;;;10.37;3.13;;;8.60;99.90;;;;;;4983785;28;20197;-77
2022/02/22 00:56:35;;;;;;;14.30;3.63;;;8.70;99.90;;;;;;4980229;28;20172;-79
2022/02/22 00:59:01;;;;;;;10.87;2.90;;;8.70;99.90;;;;;;4983659;28;20605;-79
2022/02/22 01:01:27;;;;;;;14.20;3.83;;;8.70;99.90;;;;;;4979941;28;20655;-79
2022/02/22 01:03:53;;;;;;;17.87;3.73;;;8.70;99.90;;;;;;4982676;28;20589;-79
2022/02/22 01:06:18;;;;;;;20.27;3.33;;;8.70;99.90;;;;;;4981364;28;20195;-79
2022/02/22 01:08:44;;;;;;;16.57;3.00;;;8.70;99.90;;;;;;4963810;28;20580;-79
2022/02/22 01:11:10;;;;;;;18.27;3.30;;;8.70;99.90;;;;;;4962350;28;20179;-79
2022/02/22 01:13:35;;;;;;;15.50;2.83;;;8.70;99.90;;;;;;4982675;28;20174;-79
2022/02/22 01:16:01;;;;;;;16.40;3.17;;;8.70;99.90;;;;;;4980828;28;20575;-79
2022/02/22 01:18:27;;;;;;;18.27;3.00;;;8.70;99.90;;;;;;4981846;28;20217;-78
2022/02/22 01:20:53;;;;;;;8.57;2.30;;;8.70;99.90;;;;;;4981386;28;20583;-77
2022/02/22 01:23:19;;;;;;;17.70;2.97;;;8.70;99.90;;;;;;4981808;28;20972;-77
2022/02/22 01:25:45;;;;;;;15.97;3.27;;;8.70;99.90;;;;;;4983641;28;20218;-78
2022/02/22 01:28:10;;;;;;;13.70;2.97;;;8.60;99.90;;;;;;4982528;28;20703;-77
2022/02/22 01:30:36;;;;;;;14.00;3.90;;;8.60;99.90;;;;;;4978742;28;20583;-77
2022/02/22 01:33:02;;;;;;;17.57;3.93;;;8.60;99.90;;;;;;4983404;28;20175;-77
2022/02/22 01:35:27;;;;;;;16.50;3.40;;;8.60;99.90;;;;;;4981323;28;20267;-77
2022/02/22 01:37:54;;;;;;;17.20;3.17;;;8.50;99.90;;;;;;4981976;28;20590;-77
2022/02/22 01:40:21;;;;;;;16.57;3.50;;;8.40;99.90;;;;;;4980578;28;20200;-77
2022/02/22 01:42:46;;;;;;;12.63;3.80;;;8.40;99.90;;;;;;4980837;28;20270;-77
2022/02/22 01:45:12;;;;;;;28.13;4.40;;;8.40;99.90;;;;;;4990157;28;20635;-77
2022/02/22 01:47:38;;;;;;;16.67;3.90;;;8.30;99.90;;;;;;4978998;28;20553;-77
2022/02/22 01:50:06;;;;;;;15.98;3.47;;;8.30;99.90;;;;;;4981230;28;20214;-79
2022/02/22 01:52:32;;;;;;;17.92;3.65;;;8.20;99.90;;;;;;4980633;28;20187;-79
2022/02/22 01:54:59;;;;;;;18.17;4.13;;;8.20;99.90;;;;;;4979988;28;20649;-79
2022/02/22 01:57:25;;;;;;;14.98;3.13;;;8.20;99.90;;;;;;4979840;28;20182;-77
2022/02/22 01:59:52;;;;;;;16.07;3.77;;;8.10;99.90;;;;;;4981756;28;20207;-77
2022/02/22 02:02:17;;;;;;;17.52;3.50;;;8.10;99.90;;;;;;4980588;28;20270;-77
2022/02/22 02:04:43;;;;;;;19.33;4.03;;;8.20;99.90;;;;;;4986964;28;20195;-77
2022/02/22 02:07:09;;;;;;;16.80;3.20;;;8.10;99.90;;;;;;4984445;28;20663;-77
2022/02/22 02:09:34;;;;;;;17.20;3.40;;;8.10;99.90;;;;;;4984827;28;20253;-77
2022/02/22 02:12:00;;;;;;;16.07;3.57;;;8.10;99.90;;;;;;4985430;28;20265;-78
2022/02/22 02:14:27;;;;;;;22.02;4.80;;;8.20;99.90;;;;;;4982799;28;20659;-78
2022/02/22 02:16:54;;;;;;;15.50;3.83;;;8.20;99.90;;;;;;4986714;28;20652;-78
2022/02/22 02:19:21;;;;;;;16.73;3.85;;;8.20;99.90;;;;;;4966370;28;20294;-78
2022/02/22 02:21:48;;;;;;;16.48;4.13;;;8.30;99.90;;;;;;4985184;28;20179;-78
2022/02/22 02:24:16;;;;;;;21.83;3.90;;;8.30;99.90;;;;;;4985217;28;20183;-78
2022/02/22 02:26:43;;;;;;;15.57;3.50;;;8.30;99.90;;;;;;4983802;28;20651;-78
2022/02/22 02:29:10;;;;;;;20.95;3.95;;;8.40;99.90;;;;;;4985039;28;20222;-78
2022/02/22 02:31:37;;;;;;;19.05;3.80;;;8.40;99.90;;;;;;4982052;28;20255;-78
2022/02/22 02:34:06;;;;;;;18.50;4.45;;;8.30;99.90;;;;;;4985139;28;20705;-78
2022/02/22 02:36:33;;;;;;;15.70;3.42;;;8.30;99.90;;;;;;4983817;28;20223;-78
2022/02/22 02:38:59;;;;;;;17.10;3.30;;;8.30;99.90;;;;;;4982720;28;20290;-78
2022/02/22 02:41:25;;;;;;;14.73;3.65;;;8.20;99.90;;;;;;4985800;28;20609;-78
2022/02/22 02:43:51;;;;;;;16.20;4.10;;;8.20;99.90;;;;;;4965691;28;20261;-78
2022/02/22 02:46:17;;;;;;;12.90;3.30;;;8.20;99.90;;;;;;4985474;28;20214;-78
2022/02/22 02:48:43;;;;;;;20.80;3.33;;;8.20;99.90;;;;;;4966780;28;20651;-78
2022/02/22 02:51:09;;;;;;;18.07;4.03;;;8.10;99.90;;;;;;4982674;28;20582;-78
2022/02/22 02:53:34;;;;;;;18.67;4.43;;;8.10;99.90;;;;;;4982388;28;20182;-78
2022/02/22 02:56:01;;;;;;;15.23;4.57;;;8.10;99.90;;;;;;4985716;28;20685;-78
2022/02/22 02:58:26;;;;;;;16.33;3.95;;;8.00;99.90;;;;;;4981378;28;20184;-78
2022/02/22 03:00:52;;;;;;;14.43;3.53;;;8.00;99.90;;;;;;4985327;28;20193;-78
2022/02/22 03:03:18;;;;;;;19.25;4.32;;;7.90;99.90;;;;;;4982223;28;20184;-78
2022/02/22 03:05:44;;;;;;;18.83;3.83;;;7.90;99.90;;;;;;4984128;28;20175;-78
2022/02/22 03:08:09;;;;;;;14.80;4.10;;;7.90;99.90;;;;;;4982514;28;20202;-78
2022/02/22 03:10:35;;;;;;;14.57;3.07;;;7.90;99.90;;;;;;4984720;28;20167;-78
2022/02/22 03:13:01;;;;;;;14.33;3.50;;;7.90;99.90;;;;;;4981464;28;20186;-78
2022/02/22 03:15:27;;;;;;;19.43;3.80;;;7.90;99.90;;;;;;4985948;28;20254;-77
2022/02/22 03:17:52;;;;;;;15.63;3.90;;;7.90;99.90;;;;;;4982699;28;20207;-77
2022/02/22 03:20:18;;;;;;;17.43;3.77;;;7.90;99.90;;;;;;4981831;28;20595;-77
2022/02/22 03:22:45;;;;;;;13.03;3.60;;;7.90;99.90;;;;;;4983818;28;20272;-77
2022/02/22 03:25:12;;;;;;;15.57;3.65;;;7.90;99.90;;;;;;4989929;28;20186;-77
2022/02/22 03:27:38;;;;;;;15.15;3.20;;;7.90;99.90;;;;;;4984927;28;20225;-77
2022/02/22 03:30:05;;;;;;;16.00;3.28;;;7.90;99.90;;;;;;4981582;28;20195;-77
2022/02/22 03:32:31;;;;;;;13.05;3.90;;;7.80;99.90;;;;;;4967853;28;20182;-77
2022/02/22 03:34:57;;;;;;;15.20;4.00;;;7.80;99.90;;;;;;4983937;28;20179;-77
2022/02/22 03:37:23;;;;;;;13.30;3.53;;;7.80;99.90;;;;;;4988891;28;20260;-77
2022/02/22 03:39:49;;;;;;;14.73;3.30;;;7.80;99.90;;;;;;4986154;28;20223;-77
2022/02/22 03:42:15;;;;;;;13.70;3.10;;;7.70;99.90;;;;;;4987470;28;20182;-78
2022/02/22 03:44:40;;;;;;;12.53;3.70;;;7.70;99.90;;;;;;4984355;28;20194;-78
2022/02/22 03:47:06;;;;;;;14.77;3.20;;;7.60;99.90;;;;;;4979773;28;20590;-78
2022/02/22 03:49:32;;;;;;;16.80;3.47;;;7.60;99.90;;;;;;4981297;28;20235;-78
2022/02/22 03:51:57;;;;;;;17.90;3.00;;;7.60;99.90;;;;;;4966842;28;20593;-78
2022/02/22 03:54:23;;;;;;;9.33;2.03;;;7.60;99.90;;;;;;4984065;28;20235;-78
2022/02/22 03:56:49;;;;;;;14.50;2.90;;;7.60;99.90;;;;;;4969616;28;20210;-77
2022/02/22 03:59:15;;;;;;;16.73;4.20;;;7.60;99.90;;;;;;4981321;28;20199;-77
2022/02/22 04:01:40;;;;;;;14.13;3.47;;;7.70;99.90;;;;;;4984729;28;20622;-78
2022/02/22 04:04:06;;;;;;;16.10;2.67;;;7.70;99.90;;;;;;4984725;28;20274;-77
2022/02/22 04:06:32;;;;;;;25.90;3.47;;;7.80;99.90;;;;;;4980789;28;20183;-77
2022/02/22 04:08:58;;;;;;;13.05;3.20;;;7.80;99.90;;;;;;4982442;28;20297;-78
2022/02/22 04:11:24;;;;;;;16.93;3.50;;;7.70;99.90;;;;;;4982553;28;20607;-78
2022/02/22 04:13:49;;;;;;;15.87;3.73;;;7.70;99.90;;;;;;4965230;28;20226;-78
2022/02/22 04:16:15;;;;;;;18.80;4.20;;;7.70;99.90;;;;;;4983989;28;20186;-78
2022/02/22 04:18:41;;;;;;;8.77;2.40;;;7.70;99.90;;;;;;4981481;28;20730;-77
2022/02/22 04:21:07;;;;;;;11.80;3.63;;;7.60;99.90;;;;;;4982972;28;20705;-78
2022/02/22 04:23:32;;;;;;;15.67;5.03;;;7.60;99.90;;;;;;4964292;28;20183;-78
2022/02/22 04:25:58;;;;;;;15.80;3.63;;;7.60;99.90;;;;;;4982286;28;20214;-78
2022/02/22 04:28:24;;;;;;;17.10;2.83;;;7.50;99.90;;;;;;4982351;28;20626;-78
2022/02/22 04:30:50;;;;;;;19.00;3.00;;;7.50;99.90;;;;;;4995347;28;20167;-78
2022/02/22 04:33:16;;;;;;;14.40;3.10;;;7.50;99.90;;;;;;4990213;28;20540;-78
2022/02/22 04:35:41;;;;;;;11.83;3.20;;;7.50;99.90;;;;;;4984146;28;20189;-77
2022/02/22 04:38:07;;;;;;;15.70;3.47;;;7.50;99.90;;;;;;4971918;28;20599;-78
2022/02/22 04:40:33;;;;;;;25.50;6.03;;;7.50;99.90;;;;;;4984135;28;20614;-78
2022/02/22 04:42:58;;;;;;;13.77;2.83;;;7.50;99.90;;;;;;4981898;28;20178;-78
2022/02/22 04:45:24;;;;;;;15.70;3.27;;;7.50;99.90;;;;;;4982300;28;20202;-78
2022/02/22 04:47:50;;;;;;;10.97;2.40;;;7.50;99.90;;;;;;4980936;28;20214;-78
2022/02/22 04:50:17;;;;;;;14.37;3.60;;;7.50;99.90;;;;;;4983210;28;20202;-78
2022/02/22 04:52:43;;;;;;;19.55;3.85;;;7.50;99.90;;;;;;4979846;28;20582;-78
2022/02/22 04:55:08;;;;;;;18.60;3.23;;;7.60;99.90;;;;;;4981159;28;20229;-78
2022/02/22 04:57:36;;;;;;;16.63;3.83;;;7.60;99.90;;;;;;4967354;28;20175;-78
2022/02/22 05:00:07;;;;;;;16.65;2.88;;;7.60;99.90;;;;;;4982284;28;20646;-78
2022/02/22 05:02:33;;;;;;;16.15;3.00;;;7.60;99.90;;;;;;4982535;28;20171;-78
2022/02/22 05:04:59;;;;;;;21.50;4.23;;;7.70;99.90;;;;;;4981046;28;20190;-78
2022/02/22 05:07:25;;;;;;;9.40;2.50;;;7.70;99.90;;;;;;4979827;28;20980;-78
2022/02/22 05:09:50;;;;;;;8.87;2.73;;;7.70;99.90;;;;;;4985894;28;20202;-78
2022/02/22 05:12:16;;;;;;;16.30;4.50;;;7.70;99.90;;;;;;4982435;28;20912;-77
2022/02/22 05:14:42;;;;;;;18.30;4.27;;;7.70;99.90;;;;;;4979578;28;20175;-78
2022/02/22 05:17:08;;;;;;;17.10;3.60;;;7.70;99.90;;;;;;4981857;28;20175;-77
2022/02/22 05:19:33;;;;;;;16.77;2.80;;;7.70;99.90;;;;;;4984292;28;20203;-77
2022/02/22 05:21:59;;;;;;;15.73;3.50;;;7.60;99.90;;;;;;4980363;28;20274;-77
2022/02/22 05:24:25;;;;;;;16.00;3.53;;;7.60;99.90;;;;;;4979531;28;20183;-77
2022/02/22 05:26:50;;;;;;;13.47;3.13;;;7.50;99.90;;;;;;4984460;28;20590;-78
2022/02/22 05:29:16;;;;;;;18.43;4.57;;;7.50;99.90;;;;;;4984087;28;20219;-77
2022/02/22 05:31:42;;;;;;;14.93;3.30;;;7.40;99.90;;;;;;4980571;28;20183;-78
2022/02/22 05:34:08;;;;;;;17.83;3.35;;;7.40;99.90;;;;;;4982823;28;20191;-77
2022/02/22 05:36:34;;;;;;;12.20;3.07;;;7.30;99.90;;;;;;4981161;28;20178;-78
2022/02/22 05:39:00;;;;;;;13.23;2.60;;;7.30;99.90;;;;;;4983591;28;20199;-78
2022/02/22 05:41:26;;;;;;;13.50;3.42;;;7.30;99.90;;;;;;4979281;28;20638;-78
2022/02/22 05:43:52;;;;;;;10.57;3.03;;;7.20;99.90;;;;;;4984068;28;20191;-78
2022/02/22 05:46:18;;;;;;;13.77;2.80;;;7.20;99.90;;;;;;4969117;28;20287;-78
2022/02/22 05:48:45;;;;;;;17.40;3.15;;;7.10;99.90;;;;;;4988175;28;20750;-78
2022/02/22 05:51:11;;;;;;;11.93;3.03;;;7.10;99.90;;;;;;4982185;28;20272;-78
2022/02/22 05:53:37;;;;;;;21.77;2.90;;;7.10;99.90;;;;;;4987352;28;20254;-78
2022/02/22 05:56:03;;;;;;;12.90;2.97;;;7.10;99.90;;;;;;4991394;28;20798;-78
2022/02/22 05:58:29;;;;;;;13.60;3.53;;;7.00;99.90;;;;;;4986896;28;20206;-78
2022/02/22 06:00:55;;;;;;;12.00;3.42;;;7.00;99.90;;;;;;4984692;28;21123;-78
2022/02/22 06:03:21;;;;;;;17.90;2.93;;;7.00;99.90;;;;;;4985723;28;20270;-78
2022/02/22 06:05:47;;;;;;;9.20;2.50;;;7.00;99.90;;;;;;4968711;28;20187;-78
2022/02/22 06:08:13;;;;;;;13.18;4.05;;;6.90;99.90;;;;;;4983684;28;20202;-78
2022/02/22 06:10:39;;;;;;;11.40;2.55;;;6.90;99.90;;;;;;4983337;28;20182;-78
2022/02/22 06:13:05;;;;;;;21.43;4.33;;;6.90;99.90;;;;;;4983858;28;20502;-78
2022/02/22 06:15:31;;;;;;;18.45;3.55;;;6.90;99.90;;;;;;4969992;28;20645;-78
2022/02/22 06:17:56;;;;;;;15.07;3.30;;;6.80;99.90;;;;;;4984598;28;20262;-78
2022/02/22 06:20:22;;;;;;;11.63;2.80;;;6.80;99.90;;;;;;4983949;28;20642;-78
2022/02/22 06:22:48;;;;;;;14.53;3.00;;;6.80;99.90;;;;;;4985106;28;20536;-78
2022/02/22 06:25:14;;;;;;;14.70;2.73;;;6.80;99.90;;;;;;4989601;28;20198;-78
2022/02/22 06:27:51;;;;;;;15.33;2.70;;;6.80;99.90;;;;;;4974390;28;20195;-78
2022/02/22 06:30:18;;;;;;;18.77;4.47;;;6.80;99.90;;;;;;4984578;28;20610;-76
2022/02/22 06:32:44;;;;;;;19.10;5.30;;;6.70;99.90;;;;;;4984693;28;20171;-77
2022/02/22 06:35:10;;;;;;;12.48;3.00;;;6.70;99.90;;;;;;4982218;28;20183;-77
2022/02/22 06:37:37;;;;;;;16.60;4.20;;;6.70;99.90;;;;;;4983176;28;20238;-78
2022/02/22 06:40:05;;;;;;;17.58;3.80;;;6.70;99.90;;;;;;4994578;28;20214;-78
2022/02/22 06:42:33;;;;;;;12.88;3.80;;;6.70;99.90;;;;;;4991969;28;20183;-78
2022/02/22 06:45:00;;;;;;;12.98;4.45;;;6.70;99.90;;;;;;4991529;28;20191;-77
2022/02/22 06:47:26;;;;;;;11.70;3.05;;;6.70;99.90;;;;;;5000783;28;20216;-78
2022/02/22 06:49:52;;;;;;;17.40;4.00;;;6.70;99.90;;;;;;4996745;28;20667;-78
2022/02/22 06:52:18;;;;;;;15.90;3.30;;;6.70;99.90;;;;;;4983015;28;20183;-77
2022/02/22 06:54:45;;;;;;;11.25;2.70;;;6.80;99.90;;;;;;4984531;28;20183;-76
2022/02/22 06:57:11;;;;;;;8.23;2.55;;;6.80;99.90;;;;;;4983258;28;20183;-77
2022/02/22 06:59:37;;;;;;;16.05;2.80;;;6.90;99.90;;;;;;4982644;28;20222;-77
2022/02/22 07:02:03;;;;;;;13.53;2.83;;;6.90;99.90;;;;;;4992158;28;20186;-77
2022/02/22 07:04:29;;;;;;;12.32;2.53;;;6.90;99.90;;;;;;4984915;28;20248;-76
2022/02/22 07:06:55;;;;;;;16.80;3.87;;;7.00;99.90;;;;;;4983956;28;20679;-76
2022/02/22 07:09:20;;;;;;;17.43;3.10;;;7.00;99.90;;;;;;4985004;28;20207;-76
2022/02/22 07:11:46;;;;;;;15.50;3.53;;;7.10;99.90;;;;;;4966625;28;20183;-78
2022/02/22 07:14:12;;;;;;;13.60;3.30;;;7.10;99.90;;;;;;4985485;28;20596;-76
2022/02/22 07:16:38;;;;;;;16.87;2.93;;;7.20;99.90;;;;;;4988933;28;20899;-76
2022/02/22 07:19:04;;;;;;;11.97;2.73;;;7.20;99.90;;;;;;4984853;28;20661;-76
2022/02/22 07:21:30;;;;;;;17.40;3.08;;;7.20;99.90;;;;;;4984745;28;20171;-76
2022/02/22 07:23:56;;;;;;;16.50;3.22;;;7.30;99.90;;;;;;4980150;28;20710;-76
2022/02/22 07:26:21;;;;;;;18.57;3.00;;;7.30;99.90;;;;;;4984394;28;20178;-76
2022/02/22 07:28:47;;;;;;;14.83;3.67;;;7.40;99.90;;;;;;4985043;28;20219;-76
2022/02/22 07:31:13;;;;;;;13.10;2.50;;;7.50;99.90;;;;;;4965801;28;20602;-76
2022/02/22 07:33:40;;;;;;;8.90;2.10;;;7.60;99.90;;;;;;4982650;28;20176;-76
2022/02/22 07:36:06;;;;;;;17.70;3.00;;;7.70;99.90;;;;;;4984554;28;21031;-76
2022/02/22 07:38:32;;;;;;;11.20;3.50;;;7.80;99.90;;;;;;4983172;28;20195;-76
2022/02/22 07:40:58;;;;;;;13.52;2.85;;;8.00;99.90;;;;;;4981618;28;20187;-76
2022/02/22 07:43:24;;;;;;;14.87;3.13;;;8.10;99.90;;;;;;4991014;28;20659;-76
2022/02/22 07:45:50;;;;;;;9.60;3.13;;;8.20;99.90;;;;;;4983526;28;20599;-76
2022/02/22 07:48:16;;;;;;;9.90;3.47;;;8.30;99.90;;;;;;4949694;28;20240;-76
2022/02/22 07:50:41;;;;;;;14.13;2.30;;;8.40;99.90;;;;;;4984068;28;20175;-76
2022/02/22 07:53:08;;;;;;;7.20;2.40;;;8.50;99.90;;;;;;4981174;28;21167;-76
2022/02/22 07:55:34;;;;;;;12.60;2.58;;;8.60;99.90;;;;;;4981733;28;20575;-76
2022/02/22 07:57:59;;;;;;;14.87;3.20;;;8.70;99.90;;;;;;4983948;28;20261;-76
2022/02/22 08:00:25;;;;;;;14.27;3.00;;;8.70;99.90;;;;;;4980867;28;20294;-76
2022/02/22 08:02:54;;;;;;;17.13;5.80;;;8.80;99.90;;;;;;4982798;28;20619;-76
2022/02/22 08:05:22;;;;;;;13.10;3.38;;;8.90;99.90;;;;;;4983674;28;20194;-76
2022/02/22 08:07:48;;;;;;;11.38;3.22;;;8.90;99.90;;;;;;4979580;28;20205;-76
2022/02/22 08:10:14;;;;;;;14.70;3.42;;;9.00;99.90;;;;;;4983844;28;20199;-76
2022/02/22 08:12:40;;;;;;;16.10;3.93;;;9.10;99.90;;;;;;4948519;28;20702;-75
2022/02/22 08:15:07;;;;;;;8.60;3.10;;;9.20;99.90;;;;;;4983790;28;20574;-76
2022/02/22 08:17:38;;;;;;;13.45;3.28;;;9.30;99.90;;;;;;4982882;28;20215;-76
2022/02/22 08:20:04;;;;;;;10.90;3.58;;;9.40;99.90;;;;;;4982684;28;20194;-76
2022/02/22 08:22:30;;;;;;;7.68;3.30;;;9.50;99.90;;;;;;4980180;28;20584;-76
2022/02/22 08:24:55;;;;;;;8.80;2.67;;;9.60;99.90;;;;;;4982225;28;20206;-76
2022/02/22 08:27:21;;;;;;;11.20;3.13;;;9.80;99.90;;;;;;4982130;28;20512;-76
2022/02/22 08:29:47;;;;;;;9.50;3.23;;;9.90;99.90;;;;;;4981947;28;20301;-76
2022/02/22 08:32:12;;;;;;;11.97;3.57;;;10.00;99.90;;;;;;4983169;28;20229;-76
2022/02/22 08:34:38;;;;;;;9.73;3.50;;;10.10;99.90;;;;;;4981290;28;20258;-76
2022/02/22 08:37:04;;;;;;;9.33;2.73;;;10.30;99.90;;;;;;4983225;28;20178;-76
2022/02/22 08:39:30;;;;;;;10.40;2.80;;;10.50;99.90;;;;;;4987362;28;20202;-75
2022/02/22 08:41:55;;;;;;;8.23;2.67;;;10.60;99.90;;;;;;4980433;28;20231;-76
2022/02/22 08:44:21;;;;;;;7.00;2.67;;;10.90;99.90;;;;;;4983288;28;20249;-76
2022/02/22 08:46:48;;;;;;;11.43;2.77;;;11.30;99.90;;;;;;4981313;28;20186;-76
2022/02/22 08:49:15;;;;;;;7.15;2.58;;;11.80;99.90;;;;;;4983265;28;20729;-77
2022/02/22 08:51:41;;;;;;;10.63;3.15;;;12.20;99.90;;;;;;4982533;28;20180;-77
2022/02/22 08:54:09;;;;;;;9.13;2.42;;;12.50;99.90;;;;;;4981008;28;20624;-76
2022/02/22 08:56:35;;;;;;;8.88;3.30;;;12.70;99.90;;;;;;4980148;28;20176;-76
2022/02/22 08:59:01;;;;;;;7.70;3.63;;;12.90;99.90;;;;;;4980870;28;20695;-76
2022/02/22 09:01:27;;;;;;;5.80;2.70;;;13.20;99.90;;;;;;4982363;28;20599;-77
2022/02/22 09:03:52;;;;;;;14.27;4.40;;;13.60;99.90;;;;;;4981338;28;20567;-77
2022/02/22 09:06:18;;;;;;;8.80;3.77;;;14.00;99.90;;;;;;4983654;28;20201;-77
2022/02/22 09:08:44;;;;;;;9.30;2.80;;;14.30;99.90;;;;;;4990611;28;20770;-78
2022/02/22 09:11:09;;;;;;;8.63;2.70;;;14.40;99.90;;;;;;4979565;28;20183;-76
2022/02/22 09:13:35;;;;;;;5.60;3.00;;;14.50;99.90;;;;;;4983687;28;20276;-76
2022/02/22 09:16:01;;;;;;;6.87;3.00;;;14.40;99.90;;;;;;4981191;28;20186;-76
2022/02/22 09:18:26;;;;;;;10.67;3.60;;;14.30;99.90;;;;;;4990488;28;20547;-77
2022/02/22 09:20:52;;;;;;;6.73;3.50;;;14.00;99.90;;;;;;4970699;28;20205;-76
2022/02/22 09:23:18;;;;;;;6.87;3.33;;;13.80;99.90;;;;;;4990688;28;20190;-76
2022/02/22 09:25:44;;;;;;;9.90;3.77;;;13.60;99.90;;;;;;4990269;28;20186;-76
2022/02/22 09:28:10;;;;;;;8.60;3.93;;;13.50;99.90;;;;;;4987477;28;20203;-76
2022/02/22 09:30:37;;;;;;;9.18;3.40;;;13.30;99.90;;;;;;4956733;28;20587;-76
2022/02/22 09:33:05;;;;;;;8.00;3.40;;;13.20;99.90;;;;;;4986585;28;20189;-77
2022/02/22 09:35:31;;;;;;;10.05;3.92;;;13.10;99.90;;;;;;4990491;28;20203;-76
2022/02/22 09:37:57;;;;;;;6.27;2.80;;;13.00;99.90;;;;;;4972433;28;20217;-77
2022/02/22 09:40:25;;;;;;;13.82;4.00;;;13.00;99.90;;;;;;4985129;28;20629;-77
2022/02/22 09:42:51;;;;;;;11.50;3.67;;;13.00;99.90;;;;;;4989587;28;20171;-77
2022/02/22 09:45:17;;;;;;;6.43;3.08;;;13.00;99.90;;;;;;4995045;28;20199;-77
2022/02/22 09:47:44;;;;;;;7.27;2.83;;;13.00;99.90;;;;;;4998285;28;20252;-77
2022/02/22 09:50:11;;;;;;;5.93;2.35;;;13.00;99.90;;;;;;4992784;28;20611;-77
2022/02/22 09:52:37;;;;;;;6.87;2.30;;;13.10;99.90;;;;;;4991206;28;20178;-77
2022/02/22 09:55:05;;;;;;;8.97;2.90;;;13.10;99.90;;;;;;5004665;28;20578;-77
2022/02/22 09:57:31;;;;;;;5.63;2.20;;;13.20;99.90;;;;;;4985009;28;20593;-77
2022/02/22 09:59:57;;;;;;;6.00;2.07;;;13.20;99.90;;;;;;5001987;28;20634;-77
2022/02/22 10:02:22;;;;;;;8.13;2.40;;;13.20;99.90;;;;;;5004523;28;20175;-77
2022/02/22 10:04:50;;;;;;;4.70;1.67;;;13.30;99.90;;;;;;4986586;28;20536;-77
2022/02/22 10:07:16;;;;;;;6.13;1.70;;;13.40;99.90;;;;;;5005152;28;20187;-78
2022/02/22 10:09:55;;;;;;;7.00;2.03;;;13.50;99.90;;;;;;4994600;28;20649;-78
2022/02/22 10:12:40;;;;;;;6.33;1.80;;;13.60;99.90;;;;;;4987191;28;20604;-78
2022/02/22 10:15:08;;;;;;;6.17;1.80;;;13.70;99.90;;;;;;4997662;28;20746;-78
2022/02/22 10:17:41;;;;;;;6.23;1.80;;;13.90;99.90;;;;;;4989191;28;20915;-77
2022/02/22 10:20:11;;;;;;;4.83;1.90;;;14.00;99.90;;;;;;4973519;28;21207;-77
2022/02/22 10:22:53;;;;;;;9.60;2.23;;;14.10;99.90;;;;;;4985606;28;20594;-77
2022/02/22 10:25:20;;;;;;;4.47;1.70;;;14.10;99.90;;;;;;4989029;28;21214;-78
2022/02/22 10:28:00;;;;;;;7.97;1.97;;;14.20;99.90;;;;;;4959873;28;20594;-77
2022/02/22 10:30:43;;;;;;;8.73;1.95;;;14.20;99.90;;;;;;4986246;28;20765;-77
2022/02/22 10:33:11;;;;;;;5.50;2.10;;;14.30;99.90;;;;;;4987088;28;20183;-77
2022/02/22 10:35:41;;;;;;;5.20;1.53;;;14.40;99.90;;;;;;4981851;28;20625;-77
2022/02/22 10:38:12;;;;;;;4.73;1.20;;;14.40;99.90;;;;;;4981954;28;21148;-78
2022/02/22 10:40:40;;;;;;;5.87;1.90;;;14.40;99.90;;;;;;4983921;28;20924;-78
2022/02/22 10:43:08;;;;;;;7.43;2.33;;;14.40;99.90;;;;;;4991925;28;20590;-77
2022/02/22 10:45:34;;;;;;;5.67;1.67;;;14.40;99.90;;;;;;4988830;28;20708;-78
2022/02/22 10:47:59;;;;;;;4.00;1.30;;;14.50;99.90;;;;;;4970645;28;20789;-79
2022/02/22 10:50:26;;;;;;;5.80;1.50;;;14.40;99.90;;;;;;4988455;28;20206;-77
2022/02/22 10:52:52;;;;;;;4.13;1.40;;;14.40;99.90;;;;;;4989170;28;20202;-76
2022/02/22 10:55:19;;;;;;;5.90;1.83;;;14.40;99.90;;;;;;4999771;28;20685;-77
2022/02/22 10:57:47;;;;;;;5.13;1.53;;;14.40;99.90;;;;;;4988900;28;20187;-78
2022/02/22 11:00:13;;;;;;;8.33;1.73;;;14.40;99.90;;;;;;4989681;28;20614;-77
2022/02/22 11:02:39;;;;;;;6.10;1.70;;;14.40;99.90;;;;;;4986955;28;20582;-77
2022/02/22 11:05:06;;;;;;;5.30;1.10;;;14.40;99.90;;;;;;4989358;28;20632;-77
2022/02/22 11:07:31;;;;;;;4.03;2.17;;;14.30;99.90;;;;;;4985283;28;20582;-76
2022/02/22 11:09:58;;;;;;;9.83;4.20;;;14.30;99.90;;;;;;4989082;28;20729;-77
2022/02/22 11:12:30;;;;;;;8.70;3.00;;;14.20;99.90;;;;;;4986256;28;20274;-77
2022/02/22 11:15:10;;;;;;;6.77;1.93;;;14.20;99.90;;;;;;4990462;28;20586;-77
2022/02/22 11:17:54;;;;;;;10.25;2.92;;;14.10;99.90;;;;;;4999714;28;20687;-78
2022/02/22 11:20:32;;;;;;;6.30;2.00;;;14.10;99.90;;;;;;5002394;28;20206;-77
2022/02/22 11:23:01;;;;;;;6.13;1.63;;;14.10;99.90;;;;;;4970186;28;20189;-77
2022/02/22 11:25:29;;;;;;;9.90;2.80;;;14.00;99.90;;;;;;4984879;28;20550;-77
2022/02/22 11:28:04;;;;;;;8.43;2.15;;;13.90;99.90;;;;;;4984602;28;20749;-77
2022/02/22 11:30:32;;;;;;;5.88;2.05;;;13.90;99.90;;;;;;4983004;28;20538;-77
2022/02/22 11:33:04;;;;;;;7.18;1.65;;;13.80;99.90;;;;;;4983232;28;20314;-77
2022/02/22 11:35:30;;;;;;;6.50;2.28;;;13.80;99.90;;;;;;4981935;28;20172;-77
2022/02/22 11:38:10;;;;;;;10.27;2.13;;;13.70;99.90;;;;;;4985985;28;20183;-77
2022/02/22 11:40:37;;;;;;;14.17;3.00;;;13.70;99.90;;;;;;4984372;28;21381;-77
2022/02/22 11:43:14;;;;;;;6.80;2.20;;;13.70;99.90;;;;;;4982778;28;20587;-77
2022/02/22 11:45:42;;;;;;;9.32;2.50;;;13.70;99.90;;;;;;4982081;28;20598;-77
2022/02/22 11:48:21;;;;;;;9.15;2.85;;;13.70;99.90;;;;;;4983311;28;20589;-77
2022/02/22 11:50:53;;;;;;;6.53;2.30;;;13.70;99.90;;;;;;4980845;28;20175;-77
2022/02/22 11:53:26;;;;;;;11.55;2.97;;;13.70;99.90;;;;;;4983133;28;20591;-77
2022/02/22 11:55:54;;;;;;;7.13;1.98;;;13.70;99.90;;;;;;4981485;28;20176;-77
2022/02/22 11:58:29;;;;;;;8.60;2.20;;;13.60;99.90;;;;;;4989484;28;20180;-77
2022/02/22 12:01:04;;;;;;;15.00;3.20;;;13.60;99.90;;;;;;4972449;28;20230;-77
2022/02/22 12:03:44;;;;;;;11.13;2.08;;;13.60;99.90;;;;;;4985366;28;20175;-77
2022/02/22 12:06:10;;;;;;;6.17;2.30;;;13.60;99.90;;;;;;4996963;28;20751;-77
2022/02/22 12:08:50;;;;;;;6.40;2.57;;;13.60;99.90;;;;;;4990864;28;20637;-77
2022/02/22 12:11:20;;;;;;;8.20;2.00;;;13.70;99.90;;;;;;4982529;28;20642;-77
2022/02/22 12:14:02;;;;;;;9.77;2.70;;;13.70;99.90;;;;;;4985786;28;20575;-77
2022/02/22 12:16:30;;;;;;;12.88;2.95;;;13.70;99.90;;;;;;4984305;28;20201;-77
2022/02/22 12:18:59;;;;;;;9.38;1.90;;;13.70;99.90;;;;;;4982135;28;20299;-77
2022/02/22 12:21:26;;;;;;;9.25;2.30;;;13.80;99.90;;;;;;4983834;28;20205;-77
2022/02/22 12:23:53;;;;;;;8.10;2.33;;;13.80;99.90;;;;;;4985630;28;20533;-77
2022/02/22 12:26:21;;;;;;;10.03;2.00;;;13.70;99.90;;;;;;4989391;28;20615;-76
2022/02/22 12:28:49;;;;;;;6.37;2.37;;;13.70;99.90;;;;;;4964778;28;20736;-76
2022/02/22 12:31:31;;;;;;;10.10;2.37;;;13.70;99.90;;;;;;4979507;28;20678;-76
2022/02/22 12:34:15;;;;;;;11.60;2.20;;;13.70;99.90;;;;;;4987372;28;20980;-76
2022/02/22 12:36:43;;;;;;;7.87;2.57;;;13.70;99.90;;;;;;4982995;28;20969;-77
2022/02/22 12:39:11;;;;;;;7.17;1.67;;;13.70;99.90;;;;;;4989910;28;20622;-79
2022/02/22 12:41:40;;;;;;;8.53;2.57;;;13.70;99.90;;;;;;4991255;28;20629;-77
2022/02/22 12:44:13;;;;;;;10.70;1.90;;;13.70;99.90;;;;;;4982935;28;20607;-77